createdAt,value
2018-07-23T00:01:09.997Z,9.50
2018-07-23T00:03:37.557Z,10.37
2018-07-23T00:06:06.052Z,10.20
2018-07-23T00:08:33.625Z,10.33
2018-07-23T00:11:03.124Z,8.43
2018-07-23T00:13:31.609Z,10.10
2018-07-23T00:16:00.144Z,8.60
2018-07-23T00:18:27.669Z,10.27
2018-07-23T00:20:55.993Z,9.77
2018-07-23T00:23:23.525Z,9.60
2018-07-23T00:25:51.108Z,10.30
2018-07-23T00:28:18.656Z,11.00
2018-07-23T00:30:46.226Z,10.43
2018-07-23T00:33:13.785Z,10.67
2018-07-23T00:35:41.332Z,11.23
2018-07-23T00:38:08.901Z,10.13
2018-07-23T00:40:36.549Z,11.13
2018-07-23T00:43:04.113Z,13.17
2018-07-23T00:45:31.645Z,11.13
2018-07-23T00:47:59.213Z,12.37
2018-07-23T00:50:28.732Z,12.47
2018-07-23T00:52:56.293Z,11.90
2018-07-23T00:55:24.085Z,13.10
2018-07-23T00:57:51.649Z,13.03
2018-07-23T01:00:21.144Z,15.63
2018-07-23T01:02:48.706Z,13.13
2018-07-23T01:05:16.241Z,10.80
2018-07-23T01:07:43.802Z,11.43
2018-07-23T01:10:11.366Z,12.03
2018-07-23T01:12:38.929Z,10.67
2018-07-23T01:15:07.223Z,10.40
2018-07-23T01:17:34.788Z,10.40
2018-07-23T01:20:02.354Z,9.60
2018-07-23T01:22:29.901Z,10.07
2018-07-23T01:24:57.433Z,9.90
2018-07-23T01:27:24.996Z,9.87
2018-07-23T01:29:52.528Z,10.07
2018-07-23T01:32:20.094Z,10.80
2018-07-23T01:34:47.625Z,9.90
2018-07-23T01:37:16.124Z,10.70
2018-07-23T01:39:43.685Z,11.23
2018-07-23T01:42:11.249Z,10.60
2018-07-23T01:44:38.812Z,10.47
2018-07-23T01:47:06.353Z,11.17
2018-07-23T01:49:33.918Z,10.47
2018-07-23T01:52:01.495Z,10.10
2018-07-23T01:54:29.062Z,11.33
2018-07-23T01:56:56.597Z,11.27
2018-07-23T01:59:24.129Z,10.00
2018-07-23T02:01:51.693Z,10.30
2018-07-23T02:04:19.232Z,10.00
2018-07-23T02:06:46.807Z,11.00
2018-07-23T02:09:15.308Z,10.57
2018-07-23T02:11:43.641Z,10.80
2018-07-23T02:14:11.179Z,10.60
2018-07-23T02:16:38.749Z,10.77
2018-07-23T02:19:06.293Z,10.63
2018-07-23T02:21:33.861Z,9.83
2018-07-23T02:24:01.433Z,10.50
2018-07-23T02:26:29.931Z,9.80
2018-07-23T02:28:57.510Z,10.20
2018-07-23T02:31:25.074Z,9.90
2018-07-23T02:33:52.645Z,10.17
2018-07-23T02:36:20.189Z,10.47
2018-07-23T02:38:48.488Z,10.30
2018-07-23T02:41:17.038Z,10.60
2018-07-23T02:43:44.577Z,12.00
2018-07-23T02:46:12.145Z,10.23
2018-07-23T02:48:39.717Z,10.57
2018-07-23T02:51:07.254Z,10.60
2018-07-23T02:53:34.820Z,11.10
2018-07-23T02:56:02.381Z,10.90
2018-07-23T02:58:29.944Z,10.70
2018-07-23T03:00:58.488Z,10.67
2018-07-23T03:03:26.997Z,10.33
2018-07-23T03:05:54.559Z,10.13
2018-07-23T03:08:22.870Z,10.37
2018-07-23T03:10:50.438Z,10.57
2018-07-23T03:13:17.965Z,9.83
2018-07-23T03:15:45.528Z,9.60
2018-07-23T03:18:13.093Z,11.13
2018-07-23T03:20:40.633Z,11.00
2018-07-23T03:23:08.190Z,10.43
2018-07-23T03:25:35.757Z,10.17
2018-07-23T03:28:03.312Z,11.20
2018-07-23T03:30:30.876Z,10.93
2018-07-23T03:32:58.410Z,10.53
2018-07-23T03:35:26.741Z,10.90
2018-07-23T03:37:54.306Z,9.60
2018-07-23T03:40:21.842Z,10.03
2018-07-23T03:42:49.409Z,10.53
2018-07-23T03:45:16.950Z,11.50
2018-07-23T03:47:44.510Z,11.27
2018-07-23T03:50:12.045Z,10.10
2018-07-23T03:52:39.601Z,9.90
2018-07-23T03:55:07.569Z,10.73
2018-07-23T03:57:36.045Z,11.13
2018-07-23T04:00:03.610Z,10.63
2018-07-23T04:02:31.170Z,10.57
2018-07-23T04:04:58.696Z,11.20
2018-07-23T04:07:27.028Z,11.43
2018-07-23T04:09:54.612Z,10.60
2018-07-23T04:12:22.161Z,12.13
2018-07-23T04:14:49.699Z,11.33
2018-07-23T04:17:17.246Z,12.30
2018-07-23T04:19:44.805Z,12.00
2018-07-23T04:22:12.367Z,11.17
2018-07-23T04:24:39.923Z,11.87
2018-07-23T04:27:07.456Z,10.93
2018-07-23T04:29:35.021Z,11.37
2018-07-23T04:32:02.586Z,12.33
2018-07-23T04:34:30.132Z,10.50
2018-07-23T04:36:57.705Z,11.63
2018-07-23T04:39:25.255Z,12.40
2018-07-23T04:41:54.970Z,10.80
2018-07-23T04:44:22.505Z,11.17
2018-07-23T04:46:50.070Z,11.30
2018-07-23T04:49:17.661Z,10.53
2018-07-23T04:51:45.204Z,10.60
2018-07-23T04:54:12.768Z,9.90
2018-07-23T04:56:40.363Z,10.80
2018-07-23T04:59:07.900Z,11.00
2018-07-23T05:01:35.437Z,10.90
2018-07-23T05:04:04.931Z,10.43
2018-07-23T05:06:32.496Z,12.13
2018-07-23T05:09:00.055Z,11.03
2018-07-23T05:11:27.592Z,11.83
2018-07-23T05:13:55.149Z,10.90
2018-07-23T05:16:23.673Z,10.60
2018-07-23T05:18:51.240Z,11.90
2018-07-23T05:21:18.773Z,11.40
2018-07-23T05:23:46.352Z,11.97
2018-07-23T05:26:13.959Z,11.70
2018-07-23T05:28:41.451Z,11.40
2018-07-23T05:31:09.014Z,11.90
2018-07-23T05:33:36.547Z,12.50
2018-07-23T05:36:04.110Z,11.60
2018-07-23T05:38:31.677Z,11.30
2018-07-23T05:41:00.198Z,10.77
2018-07-23T05:43:29.432Z,10.83
2018-07-23T05:45:56.961Z,11.70
2018-07-23T05:48:24.519Z,12.07
2018-07-23T05:50:52.062Z,11.70
2018-07-23T05:53:19.625Z,10.83
2018-07-23T05:55:47.194Z,11.50
2018-07-23T05:58:14.759Z,11.10
2018-07-23T06:00:42.292Z,12.60
2018-07-23T06:03:10.617Z,11.97
2018-07-23T06:05:38.177Z,11.60
2018-07-23T06:08:05.741Z,11.90
2018-07-23T06:10:33.270Z,12.80
2018-07-23T06:13:00.875Z,11.10
2018-07-23T06:15:28.429Z,11.50
2018-07-23T06:17:55.960Z,11.03
2018-07-23T06:20:23.521Z,11.30
2018-07-23T06:22:51.053Z,11.20
2018-07-23T06:25:18.617Z,11.30
2018-07-23T06:27:46.156Z,10.57
2018-07-23T06:30:13.722Z,10.73
2018-07-23T06:32:41.259Z,11.20
2018-07-23T06:35:08.792Z,10.70
2018-07-23T06:37:36.414Z,11.33
2018-07-23T06:40:03.949Z,11.13
2018-07-23T06:42:31.485Z,10.17
2018-07-23T06:44:59.809Z,10.23
2018-07-23T06:47:27.368Z,10.77
2018-07-23T06:49:54.929Z,10.03
2018-07-23T06:52:22.466Z,10.30
2018-07-23T06:54:50.032Z,10.17
2018-07-23T06:57:17.569Z,9.73
2018-07-23T06:59:47.109Z,9.73
2018-07-23T07:02:14.636Z,9.77
2018-07-23T07:04:42.202Z,9.53
2018-07-23T07:07:10.789Z,9.97
2018-07-23T07:09:38.344Z,10.43
2018-07-23T07:12:05.889Z,10.60
2018-07-23T07:14:33.445Z,10.30
2018-07-23T07:17:00.980Z,10.67
2018-07-23T07:19:28.546Z,10.57
2018-07-23T07:21:56.077Z,10.20
2018-07-23T07:24:23.638Z,9.93
2018-07-23T07:26:51.206Z,10.53
2018-07-23T07:29:20.714Z,10.50
2018-07-23T07:31:48.249Z,10.43
2018-07-23T07:34:18.518Z,9.80
2018-07-23T07:36:46.080Z,9.83
2018-07-23T07:39:13.636Z,9.83
2018-07-23T07:41:41.180Z,9.80
2018-07-23T07:44:08.734Z,10.27
2018-07-23T07:46:36.373Z,10.70
2018-07-23T07:49:03.857Z,10.60
2018-07-23T07:51:31.428Z,11.00
2018-07-23T07:53:58.964Z,10.87
2018-07-23T07:56:26.494Z,10.67
2018-07-23T07:58:54.813Z,9.93
2018-07-23T08:01:22.372Z,10.50
2018-07-23T08:03:49.937Z,10.37
2018-07-23T08:06:17.468Z,10.57
2018-07-23T08:08:45.032Z,11.10
2018-07-23T08:11:13.553Z,10.93
2018-07-23T08:13:41.125Z,10.90
2018-07-23T08:16:09.429Z,10.67
2018-07-23T08:18:37.008Z,11.17
2018-07-23T08:21:04.621Z,11.00
2018-07-23T08:23:32.155Z,10.17
2018-07-23T08:26:00.689Z,11.60
2018-07-23T08:28:28.221Z,11.10
2018-07-23T08:30:55.790Z,13.23
2018-07-23T08:33:23.324Z,12.20
2018-07-23T08:35:51.808Z,12.67
2018-07-23T08:38:19.369Z,10.20
2018-07-23T08:40:47.698Z,11.77
2018-07-23T08:43:15.261Z,13.47
2018-07-23T08:45:42.801Z,12.13
2018-07-23T08:48:12.304Z,11.17
2018-07-23T08:50:39.873Z,10.00
2018-07-23T08:53:07.427Z,12.73
2018-07-23T08:55:34.988Z,10.87
2018-07-23T08:58:02.521Z,10.80
2018-07-23T09:00:31.104Z,10.33
2018-07-23T09:02:58.641Z,10.20
2018-07-23T09:05:26.180Z,10.00
2018-07-23T09:07:55.737Z,12.53
2018-07-23T09:10:23.292Z,9.27
2018-07-23T09:12:50.850Z,9.63
2018-07-23T09:15:18.388Z,10.27
2018-07-23T09:17:45.952Z,9.43
2018-07-23T09:20:13.481Z,9.83
2018-07-23T09:22:41.045Z,10.50
2018-07-23T09:25:08.625Z,9.30
2018-07-23T09:27:36.158Z,9.20
2018-07-23T09:30:03.719Z,8.63
2018-07-23T09:32:31.282Z,10.53
2018-07-23T09:34:58.813Z,9.13
2018-07-23T09:37:27.141Z,10.40
2018-07-23T09:39:54.669Z,8.83
2018-07-23T09:42:22.229Z,9.83
2018-07-23T09:44:49.761Z,10.33
2018-07-23T09:47:17.296Z,9.93
2018-07-23T09:49:45.621Z,8.80
2018-07-23T09:52:14.186Z,9.67
2018-07-23T09:54:41.768Z,8.90
2018-07-23T09:57:09.297Z,8.40
2018-07-23T09:59:37.813Z,9.27
2018-07-23T10:02:05.377Z,8.93
2018-07-23T10:04:32.909Z,8.63
2018-07-23T10:07:00.466Z,9.60
2018-07-23T10:09:28.001Z,9.37
2018-07-23T10:11:57.559Z,9.00
2018-07-23T10:14:25.096Z,8.83
2018-07-23T10:16:52.645Z,8.13
2018-07-23T10:19:20.206Z,9.07
2018-07-23T10:21:47.733Z,8.10
2018-07-23T10:24:15.281Z,8.43
2018-07-23T10:26:43.779Z,8.10
2018-07-23T10:29:11.340Z,8.83
2018-07-23T10:31:38.887Z,8.33
2018-07-23T10:34:06.444Z,7.90
2018-07-23T10:36:34.010Z,8.37
2018-07-23T10:39:01.570Z,7.93
2018-07-23T10:41:29.193Z,8.43
2018-07-23T10:43:56.753Z,8.03
2018-07-23T10:46:25.049Z,7.50
2018-07-23T10:48:52.605Z,8.80
2018-07-23T10:51:20.129Z,7.07
2018-07-23T10:53:47.692Z,7.87
2018-07-23T10:56:15.222Z,8.23
2018-07-23T10:58:42.757Z,8.17
2018-07-23T11:01:10.361Z,8.90
2018-07-23T11:03:37.895Z,7.97
2018-07-23T11:06:05.453Z,7.63
2018-07-23T11:08:33.013Z,7.47
2018-07-23T11:11:00.544Z,8.63
2018-07-23T11:13:28.096Z,7.37
2018-07-23T11:15:55.622Z,7.63
2018-07-23T11:18:23.177Z,7.67
2018-07-23T11:20:50.705Z,7.90
2018-07-23T11:23:18.262Z,7.70
2018-07-23T11:25:45.788Z,7.67
2018-07-23T11:28:13.341Z,8.50
2018-07-23T11:30:40.894Z,7.77
2018-07-23T11:33:08.449Z,8.07
2018-07-23T11:35:36.005Z,7.50
2018-07-23T11:38:05.512Z,7.47
2018-07-23T11:40:33.043Z,6.90
2018-07-23T11:43:00.573Z,7.20
2018-07-23T11:45:28.900Z,7.57
2018-07-23T11:47:56.440Z,7.93
2018-07-23T11:50:24.006Z,7.20
2018-07-23T11:52:51.557Z,7.03
2018-07-23T11:55:19.087Z,7.70
2018-07-23T11:57:46.621Z,7.67
2018-07-23T12:00:14.184Z,7.20
2018-07-23T12:02:41.744Z,7.70
2018-07-23T12:05:11.005Z,6.70
2018-07-23T12:07:38.546Z,7.63
2018-07-23T12:10:06.101Z,6.50
2018-07-23T12:12:33.628Z,6.63
2018-07-23T12:15:01.190Z,5.43
2018-07-23T12:17:28.857Z,7.23
2018-07-23T12:19:56.341Z,5.73
2018-07-23T12:22:23.869Z,6.13
2018-07-23T12:24:51.429Z,6.00
2018-07-23T12:27:18.965Z,5.50
2018-07-23T12:29:46.526Z,6.10
2018-07-23T12:32:14.112Z,8.50
2018-07-23T12:34:41.677Z,6.90
2018-07-23T12:37:09.302Z,7.00
2018-07-23T12:39:36.911Z,6.13
2018-07-23T12:42:05.373Z,6.57
2018-07-23T12:44:32.897Z,7.93
2018-07-23T12:47:00.509Z,6.67
2018-07-23T12:49:28.148Z,7.77
2018-07-23T12:51:55.681Z,7.00
2018-07-23T12:54:23.243Z,6.37
2018-07-23T12:56:50.782Z,6.80
2018-07-23T12:59:18.464Z,5.90
2018-07-23T13:01:45.989Z,7.17
2018-07-23T13:04:15.476Z,6.80
2018-07-23T13:06:44.822Z,6.80
2018-07-23T13:09:12.344Z,6.77
2018-07-23T13:11:39.899Z,7.33
2018-07-23T13:14:07.427Z,6.23
2018-07-23T13:16:34.981Z,6.00
2018-07-23T13:19:02.519Z,5.77
2018-07-23T13:21:30.094Z,5.87
2018-07-23T13:23:58.589Z,6.03
2018-07-23T13:26:26.122Z,5.20
2018-07-23T13:28:53.678Z,5.23
2018-07-23T13:31:21.233Z,5.57
2018-07-23T13:33:48.789Z,5.07
2018-07-23T13:36:16.344Z,5.23
2018-07-23T13:38:43.869Z,5.80
2018-07-23T13:41:11.545Z,4.93
2018-07-23T13:43:39.081Z,5.20
2018-07-23T13:46:06.604Z,5.70
2018-07-23T13:48:34.170Z,6.27
2018-07-23T13:51:01.733Z,6.23
2018-07-23T13:53:30.069Z,6.03
2018-07-23T13:55:57.618Z,6.10
2018-07-23T13:58:25.189Z,5.97
2018-07-23T14:00:52.768Z,6.37
2018-07-23T14:03:21.160Z,6.60
2018-07-23T14:05:49.453Z,5.90
2018-07-23T14:08:17.006Z,6.53
2018-07-23T14:10:44.564Z,6.50
2018-07-23T14:13:12.139Z,6.20
2018-07-23T14:15:40.618Z,6.20
2018-07-23T14:18:08.169Z,6.87
2018-07-23T14:20:35.722Z,5.77
2018-07-23T14:23:03.323Z,5.70
2018-07-23T14:25:30.856Z,5.60
2018-07-23T14:27:58.413Z,5.87
2018-07-23T14:30:27.916Z,5.40
2018-07-23T14:32:55.470Z,5.27
2018-07-23T14:35:23.014Z,5.60
2018-07-23T14:37:50.569Z,5.67
2018-07-23T14:40:18.114Z,5.20
2018-07-23T14:42:45.674Z,4.87
2018-07-23T14:45:14.256Z,5.20
2018-07-23T14:47:41.808Z,4.80
2018-07-23T14:50:09.342Z,4.70
2018-07-23T14:52:38.864Z,4.90
2018-07-23T14:55:07.256Z,6.32
2018-07-23T14:57:34.828Z,4.90
2018-07-23T15:00:02.689Z,5.30
2018-07-23T15:02:30.244Z,5.37
2018-07-23T15:04:57.772Z,5.70
2018-07-23T15:07:25.329Z,5.40
2018-07-23T15:09:52.872Z,6.07
2018-07-23T15:12:21.198Z,7.03
2018-07-23T15:14:48.760Z,6.93
2018-07-23T15:17:16.358Z,7.40
2018-07-23T15:19:44.261Z,7.00
2018-07-23T15:22:13.773Z,7.40
2018-07-23T15:24:41.315Z,7.40
2018-07-23T15:27:08.878Z,7.60
2018-07-23T15:29:36.405Z,8.30
2018-07-23T15:32:03.973Z,8.43
2018-07-23T15:34:31.528Z,7.87
2018-07-23T15:37:00.063Z,9.20
2018-07-23T15:39:28.577Z,8.80
2018-07-23T15:41:56.136Z,9.60
2018-07-23T15:44:23.780Z,8.60
2018-07-23T15:46:53.001Z,9.60
2018-07-23T15:49:20.528Z,10.27
2018-07-23T15:51:48.112Z,9.27
2018-07-23T15:54:15.677Z,10.20
2018-07-23T15:56:44.165Z,11.83
2018-07-23T15:59:12.687Z,9.60
2018-07-23T16:01:40.221Z,9.70
2018-07-23T16:04:08.717Z,10.10
2018-07-23T16:06:36.268Z,9.60
2018-07-23T16:09:03.829Z,10.80
2018-07-23T16:11:31.369Z,10.30
2018-07-23T16:13:58.924Z,9.23
2018-07-23T16:16:26.494Z,10.00
2018-07-23T16:18:54.061Z,9.70
2018-07-23T16:21:21.593Z,10.27
2018-07-23T16:23:49.151Z,10.97
2018-07-23T16:26:17.918Z,10.20
2018-07-23T16:28:45.457Z,9.83
2018-07-23T16:31:13.034Z,9.27
2018-07-23T16:33:40.570Z,10.10
2018-07-23T16:36:08.129Z,9.40
2018-07-23T16:38:35.693Z,9.80
2018-07-23T16:41:03.220Z,9.67
2018-07-23T16:43:30.781Z,10.47
2018-07-23T16:45:58.342Z,10.33
2018-07-23T16:48:26.946Z,10.53
2018-07-23T16:50:54.484Z,10.53
2018-07-23T16:53:24.766Z,8.43
2018-07-23T16:55:52.293Z,8.77
2018-07-23T16:58:19.851Z,9.07
2018-07-23T17:00:47.376Z,9.27
2018-07-23T17:03:15.756Z,9.10
2018-07-23T17:05:43.360Z,9.10
2018-07-23T17:08:11.180Z,9.37
2018-07-23T17:10:38.729Z,9.20
2018-07-23T17:13:07.048Z,9.07
2018-07-23T17:15:34.572Z,8.37
2018-07-23T17:18:02.216Z,12.37
2018-07-23T17:20:30.673Z,9.50
2018-07-23T17:22:58.260Z,9.53
2018-07-23T17:25:25.792Z,9.53
2018-07-23T17:27:54.277Z,10.00
2018-07-23T17:30:22.601Z,9.50
2018-07-23T17:32:51.084Z,11.00
2018-07-23T17:35:18.637Z,9.80
2018-07-23T17:37:46.165Z,9.73
2018-07-23T17:40:13.728Z,9.40
2018-07-23T17:42:41.264Z,8.63
2018-07-23T17:45:08.868Z,8.70
2018-07-23T17:47:36.373Z,8.30
2018-07-23T17:50:04.697Z,8.90
2018-07-23T17:52:32.231Z,8.60
2018-07-23T17:54:59.815Z,7.70
2018-07-23T17:57:27.413Z,7.90
2018-07-23T17:59:54.969Z,8.80
2018-07-23T18:02:22.497Z,8.73
2018-07-23T18:04:50.049Z,8.17
2018-07-23T18:07:17.604Z,9.03
2018-07-23T18:09:45.169Z,8.73
2018-07-23T18:12:12.828Z,8.87
2018-07-23T18:14:40.384Z,9.27
2018-07-23T18:17:07.945Z,10.10
2018-07-23T18:19:35.501Z,9.60
2018-07-23T18:22:03.997Z,9.50
2018-07-23T18:24:31.544Z,8.83
2018-07-23T18:26:59.112Z,9.50
2018-07-23T18:29:26.677Z,10.57
2018-07-23T18:31:54.205Z,9.03
2018-07-23T18:34:21.740Z,8.53
2018-07-23T18:36:49.298Z,9.27
2018-07-23T18:39:16.829Z,9.10
2018-07-23T18:41:44.392Z,8.90
2018-07-23T18:44:12.896Z,9.70
2018-07-23T18:46:41.449Z,8.77
2018-07-23T18:52:08.477Z,11.88
2018-07-23T18:54:36.068Z,10.30
2018-07-23T18:57:03.649Z,9.47
2018-07-23T18:59:31.251Z,9.30
2018-07-23T19:01:59.706Z,9.37
2018-07-23T19:04:27.251Z,9.53
2018-07-23T19:06:54.820Z,10.10
2018-07-23T19:09:22.432Z,9.10
2018-07-23T19:11:50.063Z,9.87
2018-07-23T19:14:17.628Z,9.80
2018-07-23T19:16:46.145Z,9.43
2018-07-23T19:19:14.712Z,10.10
2018-07-23T19:21:42.293Z,10.97
2018-07-23T19:24:09.873Z,10.87
2018-07-23T19:26:37.434Z,10.63
2018-07-23T19:29:05.004Z,10.60
2018-07-23T19:31:32.579Z,12.83
2018-07-23T19:34:00.922Z,10.43
2018-07-23T19:36:28.685Z,9.90
2018-07-23T19:38:56.264Z,10.13
2018-07-23T19:41:23.844Z,9.03
2018-07-23T19:43:51.453Z,10.17
2018-07-23T19:46:19.005Z,9.60
2018-07-23T19:48:46.598Z,9.60
2018-07-23T19:51:14.188Z,10.20
2018-07-23T19:53:41.759Z,9.67
2018-07-23T19:56:09.329Z,10.60
2018-07-23T19:58:36.903Z,10.67
2018-07-23T20:01:04.472Z,10.37
2018-07-23T20:03:32.059Z,11.07
2018-07-23T20:05:59.624Z,10.63
2018-07-23T20:08:27.221Z,10.33
2018-07-23T20:10:54.778Z,16.90
2018-07-23T20:13:22.359Z,11.20
2018-07-23T20:15:49.902Z,14.07
2018-07-23T20:18:17.473Z,10.00
2018-07-23T20:20:45.105Z,10.43
2018-07-23T20:23:12.654Z,10.67
2018-07-23T20:25:40.225Z,13.30
2018-07-23T20:28:07.814Z,10.70
2018-07-23T20:30:36.340Z,10.13
2018-07-23T20:33:04.907Z,11.07
2018-07-23T20:35:32.481Z,11.10
2018-07-23T20:38:00.110Z,10.80
2018-07-23T20:40:27.764Z,10.77
2018-07-23T20:42:55.353Z,14.93
2018-07-23T20:45:22.975Z,11.93
2018-07-23T20:47:51.777Z,11.40
2018-07-23T20:50:19.319Z,10.97
2018-07-23T20:52:47.663Z,11.30
2018-07-23T20:55:15.206Z,10.70
2018-07-23T20:57:42.774Z,11.50
2018-07-23T21:00:10.398Z,11.23
2018-07-23T21:02:37.968Z,12.10
2018-07-23T21:05:05.621Z,13.13
2018-07-23T21:07:33.197Z,11.80
2018-07-23T21:10:00.767Z,11.10
2018-07-23T21:12:28.314Z,11.53
2018-07-23T21:14:55.924Z,11.90
2018-07-23T21:17:23.507Z,12.07
2018-07-23T21:19:51.086Z,12.07
2018-07-23T21:22:18.702Z,12.40
2018-07-23T21:24:46.268Z,12.30
2018-07-23T21:27:13.833Z,11.60
2018-07-23T21:29:41.418Z,12.13
2018-07-23T21:32:08.999Z,11.30
2018-07-23T21:37:11.381Z,10.97
2018-07-23T21:39:38.959Z,11.80
2018-07-23T21:42:06.574Z,11.83
2018-07-23T21:44:34.214Z,12.00
2018-07-23T21:47:01.804Z,11.57
2018-07-23T21:49:29.392Z,12.47
2018-07-23T21:51:56.951Z,11.43
2018-07-23T21:54:24.538Z,12.53
2018-07-23T21:56:52.116Z,12.60
2018-07-23T21:59:21.638Z,12.90
2018-07-23T22:01:49.226Z,11.53
2018-07-23T22:04:16.823Z,11.90
2018-07-23T22:06:44.503Z,12.63
2018-07-23T22:09:12.081Z,13.47
2018-07-23T22:11:40.669Z,13.67
2018-07-23T22:14:09.204Z,12.40
2018-07-23T22:16:36.782Z,14.70
2018-07-23T22:19:04.367Z,12.63
2018-07-23T22:21:31.953Z,14.20
2018-07-23T22:23:59.528Z,14.37
2018-07-23T22:26:27.069Z,13.00
2018-07-23T22:28:54.621Z,13.97
2018-07-23T22:31:22.196Z,14.23
2018-07-23T22:33:49.732Z,14.10
2018-07-23T22:36:18.225Z,13.90
2018-07-23T22:38:45.752Z,14.60
2018-07-23T22:41:14.076Z,13.30
2018-07-23T22:43:41.600Z,14.50
2018-07-23T22:46:09.142Z,14.67
2018-07-23T22:48:38.637Z,13.53
2018-07-23T22:51:06.213Z,13.50
2018-07-23T22:53:33.779Z,13.90
2018-07-23T22:56:01.318Z,13.83
2018-07-23T22:58:31.592Z,13.00
2018-07-23T23:00:59.159Z,13.13
2018-07-23T23:03:26.692Z,13.57
2018-07-23T23:05:54.252Z,13.93
2018-07-23T23:08:21.780Z,13.50
2018-07-23T23:10:49.474Z,13.43
2018-07-23T23:13:17.000Z,13.53
2018-07-23T23:15:44.547Z,14.67
2018-07-23T23:18:12.105Z,13.47
2018-07-23T23:20:40.407Z,14.07
2018-07-23T23:23:07.973Z,13.70
2018-07-23T23:25:35.531Z,13.90
2018-07-23T23:28:03.098Z,14.10
2018-07-23T23:30:30.627Z,15.00
2018-07-23T23:32:58.187Z,13.53
2018-07-23T23:35:25.747Z,13.67
2018-07-23T23:37:53.309Z,14.53
2018-07-23T23:40:20.847Z,15.47
2018-07-23T23:42:50.357Z,13.23
2018-07-23T23:45:17.897Z,18.83
2018-07-23T23:47:45.457Z,14.50
2018-07-23T23:50:12.993Z,13.77
2018-07-23T23:52:40.549Z,13.77
2018-07-23T23:55:08.849Z,14.30
2018-07-23T23:57:36.496Z,13.30
